sensor_id;sensor_type;location;lat;lon;timestamp;P1;durP1;ratioP1;P2;durP2;ratioP2
20480;SDS011;10399;50.754;3.366;2023-04-28T00:00:34;51.35;;;28.98;;
20480;SDS011;10399;50.754;3.366;2023-04-28T00:03:01;53.88;;;29.58;;
20480;SDS011;10399;50.754;3.366;2023-04-28T00:05:29;50.20;;;29.75;;
20480;SDS011;10399;50.754;3.366;2023-04-28T00:07:56;46.65;;;28.92;;
20480;SDS011;10399;50.754;3.366;2023-04-28T00:10:24;52.20;;;29.13;;
20480;SDS011;10399;50.754;3.366;2023-04-28T00:12:52;54.90;;;30.70;;
20480;SDS011;10399;50.754;3.366;2023-04-28T00:15:19;54.95;;;30.23;;
20480;SDS011;10399;50.754;3.366;2023-04-28T00:17:46;49.15;;;29.90;;
20480;SDS011;10399;50.754;3.366;2023-04-28T00:20:14;52.30;;;29.98;;
20480;SDS011;10399;50.754;3.366;2023-04-28T00:22:41;50.38;;;30.33;;
20480;SDS011;10399;50.754;3.366;2023-04-28T00:25:08;54.42;;;29.13;;
20480;SDS011;10399;50.754;3.366;2023-04-28T00:27:35;50.00;;;30.70;;
20480;SDS011;10399;50.754;3.366;2023-04-28T00:30:03;53.00;;;30.35;;
20480;SDS011;10399;50.754;3.366;2023-04-28T00:32:30;52.92;;;30.60;;
20480;SDS011;10399;50.754;3.366;2023-04-28T00:34:57;52.97;;;30.90;;
20480;SDS011;10399;50.754;3.366;2023-04-28T00:37:24;49.03;;;30.02;;
20480;SDS011;10399;50.754;3.366;2023-04-28T00:39:54;52.22;;;31.55;;
20480;SDS011;10399;50.754;3.366;2023-04-28T00:42:21;53.53;;;30.67;;
20480;SDS011;10399;50.754;3.366;2023-04-28T00:44:49;50.42;;;29.33;;
20480;SDS011;10399;50.754;3.366;2023-04-28T00:47:16;50.80;;;30.17;;
20480;SDS011;10399;50.754;3.366;2023-04-28T00:49:44;47.38;;;31.05;;
20480;SDS011;10399;50.754;3.366;2023-04-28T00:52:12;49.53;;;30.08;;
20480;SDS011;10399;50.754;3.366;2023-04-28T00:54:39;49.97;;;30.77;;
20480;SDS011;10399;50.754;3.366;2023-04-28T00:57:08;47.10;;;28.90;;
20480;SDS011;10399;50.754;3.366;2023-04-28T00:59:36;52.22;;;29.67;;
20480;SDS011;10399;50.754;3.366;2023-04-28T01:02:03;51.42;;;30.38;;
20480;SDS011;10399;50.754;3.366;2023-04-28T01:04:33;55.85;;;30.20;;
20480;SDS011;10399;50.754;3.366;2023-04-28T01:07:01;52.47;;;31.23;;
20480;SDS011;10399;50.754;3.366;2023-04-28T01:09:29;56.45;;;30.27;;
20480;SDS011;10399;50.754;3.366;2023-04-28T01:11:56;52.25;;;31.40;;
20480;SDS011;10399;50.754;3.366;2023-04-28T01:14:23;48.85;;;29.02;;
20480;SDS011;10399;50.754;3.366;2023-04-28T01:16:50;60.75;;;31.65;;
20480;SDS011;10399;50.754;3.366;2023-04-28T01:19:20;49.75;;;28.35;;
20480;SDS011;10399;50.754;3.366;2023-04-28T01:21:48;48.95;;;29.90;;
20480;SDS011;10399;50.754;3.366;2023-04-28T01:24:15;47.83;;;29.25;;
20480;SDS011;10399;50.754;3.366;2023-04-28T01:26:43;52.65;;;31.30;;
20480;SDS011;10399;50.754;3.366;2023-04-28T01:29:11;53.70;;;29.95;;
20480;SDS011;10399;50.754;3.366;2023-04-28T01:31:38;53.13;;;29.13;;
20480;SDS011;10399;50.754;3.366;2023-04-28T01:34:09;51.95;;;28.75;;
20480;SDS011;10399;50.754;3.366;2023-04-28T01:36:36;51.85;;;29.27;;
20480;SDS011;10399;50.754;3.366;2023-04-28T01:39:03;42.22;;;27.45;;
20480;SDS011;10399;50.754;3.366;2023-04-28T01:41:31;52.67;;;28.00;;
20480;SDS011;10399;50.754;3.366;2023-04-28T01:44:00;48.40;;;28.95;;
20480;SDS011;10399;50.754;3.366;2023-04-28T01:46:28;45.88;;;27.88;;
20480;SDS011;10399;50.754;3.366;2023-04-28T01:48:55;47.03;;;27.33;;
20480;SDS011;10399;50.754;3.366;2023-04-28T01:51:22;47.58;;;27.05;;
20480;SDS011;10399;50.754;3.366;2023-04-28T01:53:49;50.05;;;27.70;;
20480;SDS011;10399;50.754;3.366;2023-04-28T01:56:16;53.50;;;27.08;;
20480;SDS011;10399;50.754;3.366;2023-04-28T01:58:43;42.80;;;26.70;;
20480;SDS011;10399;50.754;3.366;2023-04-28T02:01:10;42.97;;;26.83;;
20480;SDS011;10399;50.754;3.366;2023-04-28T02:03:38;47.70;;;28.15;;
20480;SDS011;10399;50.754;3.366;2023-04-28T02:06:06;53.38;;;28.08;;
20480;SDS011;10399;50.754;3.366;2023-04-28T02:08:33;44.35;;;27.05;;
20480;SDS011;10399;50.754;3.366;2023-04-28T02:10:59;44.15;;;26.35;;
20480;SDS011;10399;50.754;3.366;2023-04-28T02:13:26;51.53;;;28.20;;
20480;SDS011;10399;50.754;3.366;2023-04-28T02:15:53;45.65;;;27.15;;
20480;SDS011;10399;50.754;3.366;2023-04-28T02:18:20;48.88;;;26.98;;
20480;SDS011;10399;50.754;3.366;2023-04-28T02:20:47;45.17;;;27.08;;
20480;SDS011;10399;50.754;3.366;2023-04-28T02:23:14;47.47;;;26.52;;
20480;SDS011;10399;50.754;3.366;2023-04-28T02:25:41;45.25;;;26.85;;
20480;SDS011;10399;50.754;3.366;2023-04-28T02:28:08;49.00;;;27.33;;
20480;SDS011;10399;50.754;3.366;2023-04-28T02:30:35;46.38;;;26.88;;
20480;SDS011;10399;50.754;3.366;2023-04-28T02:33:03;52.05;;;26.85;;
20480;SDS011;10399;50.754;3.366;2023-04-28T02:35:30;39.80;;;24.23;;
20480;SDS011;10399;50.754;3.366;2023-04-28T02:37:57;37.70;;;22.85;;
20480;SDS011;10399;50.754;3.366;2023-04-28T02:40:25;38.33;;;21.92;;
20480;SDS011;10399;50.754;3.366;2023-04-28T02:42:52;39.25;;;21.52;;
20480;SDS011;10399;50.754;3.366;2023-04-28T02:45:19;38.33;;;20.70;;
20480;SDS011;10399;50.754;3.366;2023-04-28T02:47:46;35.85;;;20.50;;
20480;SDS011;10399;50.754;3.366;2023-04-28T02:50:13;31.55;;;20.83;;
20480;SDS011;10399;50.754;3.366;2023-04-28T02:52:40;37.30;;;20.48;;
20480;SDS011;10399;50.754;3.366;2023-04-28T02:55:07;33.17;;;19.80;;
20480;SDS011;10399;50.754;3.366;2023-04-28T02:57:35;34.55;;;19.60;;
20480;SDS011;10399;50.754;3.366;2023-04-28T03:00:02;31.92;;;18.83;;
20480;SDS011;10399;50.754;3.366;2023-04-28T03:02:30;31.63;;;20.15;;
20480;SDS011;10399;50.754;3.366;2023-04-28T03:04:57;32.25;;;20.30;;
20480;SDS011;10399;50.754;3.366;2023-04-28T03:07:24;32.78;;;19.23;;
20480;SDS011;10399;50.754;3.366;2023-04-28T03:09:51;32.55;;;18.65;;
20480;SDS011;10399;50.754;3.366;2023-04-28T03:12:18;26.98;;;18.20;;
20480;SDS011;10399;50.754;3.366;2023-04-28T03:14:45;28.85;;;17.27;;
20480;SDS011;10399;50.754;3.366;2023-04-28T03:17:13;27.95;;;17.85;;
20480;SDS011;10399;50.754;3.366;2023-04-28T03:19:40;27.27;;;17.17;;
20480;SDS011;10399;50.754;3.366;2023-04-28T03:22:07;28.48;;;16.98;;
20480;SDS011;10399;50.754;3.366;2023-04-28T03:24:34;28.42;;;16.67;;
20480;SDS011;10399;50.754;3.366;2023-04-28T03:27:01;26.83;;;16.95;;
20480;SDS011;10399;50.754;3.366;2023-04-28T03:29:28;27.63;;;16.42;;
20480;SDS011;10399;50.754;3.366;2023-04-28T03:31:55;29.17;;;17.35;;
20480;SDS011;10399;50.754;3.366;2023-04-28T03:34:23;24.70;;;15.45;;
20480;SDS011;10399;50.754;3.366;2023-04-28T03:36:59;24.10;;;15.10;;
20480;SDS011;10399;50.754;3.366;2023-04-28T03:39:28;25.30;;;15.30;;
20480;SDS011;10399;50.754;3.366;2023-04-28T03:41:56;22.23;;;14.05;;
20480;SDS011;10399;50.754;3.366;2023-04-28T03:44:23;23.95;;;14.43;;
20480;SDS011;10399;50.754;3.366;2023-04-28T03:46:50;22.35;;;14.38;;
20480;SDS011;10399;50.754;3.366;2023-04-28T03:49:17;18.60;;;13.13;;
20480;SDS011;10399;50.754;3.366;2023-04-28T03:51:44;20.33;;;13.35;;
20480;SDS011;10399;50.754;3.366;2023-04-28T03:54:12;20.60;;;13.10;;
20480;SDS011;10399;50.754;3.366;2023-04-28T03:56:39;22.17;;;13.82;;
20480;SDS011;10399;50.754;3.366;2023-04-28T03:59:07;20.10;;;13.30;;
20480;SDS011;10399;50.754;3.366;2023-04-28T04:01:37;18.23;;;12.48;;
20480;SDS011;10399;50.754;3.366;2023-04-28T04:04:04;20.38;;;12.90;;
20480;SDS011;10399;50.754;3.366;2023-04-28T04:06:32;21.85;;;12.80;;
20480;SDS011;10399;50.754;3.366;2023-04-28T04:08:59;19.45;;;12.15;;
20480;SDS011;10399;50.754;3.366;2023-04-28T04:11:27;17.85;;;11.93;;
20480;SDS011;10399;50.754;3.366;2023-04-28T04:13:53;17.27;;;12.02;;
20480;SDS011;10399;50.754;3.366;2023-04-28T04:16:20;18.65;;;11.55;;
20480;SDS011;10399;50.754;3.366;2023-04-28T04:18:48;18.77;;;11.80;;
20480;SDS011;10399;50.754;3.366;2023-04-28T04:21:15;17.45;;;11.65;;
20480;SDS011;10399;50.754;3.366;2023-04-28T04:23:42;18.25;;;11.45;;
20480;SDS011;10399;50.754;3.366;2023-04-28T04:26:08;16.70;;;11.10;;
20480;SDS011;10399;50.754;3.366;2023-04-28T04:28:35;17.52;;;11.20;;
20480;SDS011;10399;50.754;3.366;2023-04-28T04:31:02;15.30;;;11.70;;
20480;SDS011;10399;50.754;3.366;2023-04-28T04:33:29;17.30;;;11.52;;
20480;SDS011;10399;50.754;3.366;2023-04-28T04:35:56;20.33;;;12.07;;
20480;SDS011;10399;50.754;3.366;2023-04-28T04:38:24;17.60;;;11.57;;
20480;SDS011;10399;50.754;3.366;2023-04-28T04:40:51;16.85;;;11.05;;
20480;SDS011;10399;50.754;3.366;2023-04-28T04:43:18;17.63;;;11.63;;
20480;SDS011;10399;50.754;3.366;2023-04-28T04:45:46;13.82;;;10.48;;
20480;SDS011;10399;50.754;3.366;2023-04-28T04:48:13;14.48;;;9.75;;
20480;SDS011;10399;50.754;3.366;2023-04-28T04:50:41;16.35;;;11.10;;
20480;SDS011;10399;50.754;3.366;2023-04-28T04:53:09;14.10;;;10.73;;
20480;SDS011;10399;50.754;3.366;2023-04-28T04:55:41;15.85;;;10.73;;
20480;SDS011;10399;50.754;3.366;2023-04-28T04:58:08;15.25;;;10.75;;
20480;SDS011;10399;50.754;3.366;2023-04-28T05:00:35;15.48;;;10.05;;
20480;SDS011;10399;50.754;3.366;2023-04-28T05:03:03;14.38;;;10.13;;
20480;SDS011;10399;50.754;3.366;2023-04-28T05:05:31;20.23;;;9.98;;
20480;SDS011;10399;50.754;3.366;2023-04-28T05:08:00;13.68;;;9.80;;
20480;SDS011;10399;50.754;3.366;2023-04-28T05:10:27;14.50;;;8.80;;
20480;SDS011;10399;50.754;3.366;2023-04-28T05:12:55;11.13;;;7.45;;
20480;SDS011;10399;50.754;3.366;2023-04-28T05:15:22;8.18;;;6.35;;
20480;SDS011;10399;50.754;3.366;2023-04-28T05:17:48;7.90;;;5.63;;
20480;SDS011;10399;50.754;3.366;2023-04-28T05:20:15;6.40;;;5.20;;
20480;SDS011;10399;50.754;3.366;2023-04-28T05:22:42;7.38;;;5.53;;
20480;SDS011;10399;50.754;3.366;2023-04-28T05:25:09;6.63;;;4.60;;
20480;SDS011;10399;50.754;3.366;2023-04-28T05:27:36;5.80;;;4.20;;
20480;SDS011;10399;50.754;3.366;2023-04-28T05:30:08;7.22;;;4.13;;
20480;SDS011;10399;50.754;3.366;2023-04-28T05:32:36;4.50;;;4.10;;
20480;SDS011;10399;50.754;3.366;2023-04-28T05:35:04;5.20;;;3.65;;
20480;SDS011;10399;50.754;3.366;2023-04-28T05:37:31;6.75;;;4.30;;
20480;SDS011;10399;50.754;3.366;2023-04-28T05:39:58;6.80;;;4.28;;
20480;SDS011;10399;50.754;3.366;2023-04-28T05:42:25;5.25;;;4.00;;
20480;SDS011;10399;50.754;3.366;2023-04-28T05:44:52;5.13;;;4.30;;
20480;SDS011;10399;50.754;3.366;2023-04-28T05:47:20;4.82;;;4.18;;
20480;SDS011;10399;50.754;3.366;2023-04-28T05:49:47;4.47;;;3.22;;
20480;SDS011;10399;50.754;3.366;2023-04-28T05:52:13;6.38;;;3.60;;
20480;SDS011;10399;50.754;3.366;2023-04-28T05:54:41;4.25;;;3.72;;
20480;SDS011;10399;50.754;3.366;2023-04-28T05:57:08;4.80;;;3.65;;
20480;SDS011;10399;50.754;3.366;2023-04-28T05:59:35;4.40;;;3.40;;
20480;SDS011;10399;50.754;3.366;2023-04-28T06:02:02;6.30;;;4.00;;
20480;SDS011;10399;50.754;3.366;2023-04-28T06:04:30;4.45;;;3.60;;
20480;SDS011;10399;50.754;3.366;2023-04-28T06:06:58;4.05;;;3.25;;
20480;SDS011;10399;50.754;3.366;2023-04-28T06:09:25;4.30;;;2.97;;
20480;SDS011;10399;50.754;3.366;2023-04-28T06:11:52;3.97;;;2.97;;
20480;SDS011;10399;50.754;3.366;2023-04-28T06:14:19;4.03;;;2.90;;
20480;SDS011;10399;50.754;3.366;2023-04-28T06:16:47;3.25;;;2.53;;
20480;SDS011;10399;50.754;3.366;2023-04-28T06:19:15;4.22;;;2.80;;
20480;SDS011;10399;50.754;3.366;2023-04-28T06:21:44;3.95;;;2.97;;
20480;SDS011;10399;50.754;3.366;2023-04-28T06:24:11;4.07;;;2.67;;
20480;SDS011;10399;50.754;3.366;2023-04-28T06:26:38;4.60;;;2.90;;
20480;SDS011;10399;50.754;3.366;2023-04-28T06:29:05;2.85;;;2.55;;
20480;SDS011;10399;50.754;3.366;2023-04-28T06:31:32;4.55;;;2.58;;
20480;SDS011;10399;50.754;3.366;2023-04-28T06:33:59;5.18;;;2.80;;
20480;SDS011;10399;50.754;3.366;2023-04-28T06:36:26;8.50;;;2.65;;
20480;SDS011;10399;50.754;3.366;2023-04-28T06:38:53;2.53;;;2.25;;
20480;SDS011;10399;50.754;3.366;2023-04-28T06:41:21;4.18;;;2.50;;
20480;SDS011;10399;50.754;3.366;2023-04-28T06:43:48;3.50;;;2.38;;
20480;SDS011;10399;50.754;3.366;2023-04-28T06:46:16;2.10;;;1.90;;
20480;SDS011;10399;50.754;3.366;2023-04-28T06:48:43;2.15;;;1.95;;
20480;SDS011;10399;50.754;3.366;2023-04-28T06:51:10;4.63;;;1.70;;
20480;SDS011;10399;50.754;3.366;2023-04-28T06:53:37;3.40;;;1.70;;
20480;SDS011;10399;50.754;3.366;2023-04-28T06:56:04;1.77;;;1.67;;
20480;SDS011;10399;50.754;3.366;2023-04-28T06:58:33;2.03;;;1.83;;
20480;SDS011;10399;50.754;3.366;2023-04-28T07:01:00;2.58;;;1.92;;
20480;SDS011;10399;50.754;3.366;2023-04-28T07:03:29;2.45;;;2.05;;
20480;SDS011;10399;50.754;3.366;2023-04-28T07:05:58;2.63;;;1.85;;
20480;SDS011;10399;50.754;3.366;2023-04-28T07:08:25;1.90;;;1.63;;
20480;SDS011;10399;50.754;3.366;2023-04-28T07:10:52;3.42;;;2.10;;
20480;SDS011;10399;50.754;3.366;2023-04-28T07:13:19;3.97;;;1.50;;
20480;SDS011;10399;50.754;3.366;2023-04-28T07:15:46;1.58;;;1.40;;
20480;SDS011;10399;50.754;3.366;2023-04-28T07:18:13;1.83;;;1.27;;
20480;SDS011;10399;50.754;3.366;2023-04-28T07:20:40;1.20;;;1.10;;
20480;SDS011;10399;50.754;3.366;2023-04-28T07:23:07;1.30;;;1.20;;
20480;SDS011;10399;50.754;3.366;2023-04-28T07:25:35;1.95;;;1.42;;
20480;SDS011;10399;50.754;3.366;2023-04-28T07:28:02;1.33;;;1.00;;
20480;SDS011;10399;50.754;3.366;2023-04-28T07:30:31;1.38;;;0.98;;
20480;SDS011;10399;50.754;3.366;2023-04-28T07:32:58;1.88;;;1.35;;
20480;SDS011;10399;50.754;3.366;2023-04-28T07:35:25;2.33;;;1.10;;
20480;SDS011;10399;50.754;3.366;2023-04-28T07:37:52;1.90;;;1.27;;
20480;SDS011;10399;50.754;3.366;2023-04-28T07:40:20;3.90;;;1.38;;
20480;SDS011;10399;50.754;3.366;2023-04-28T07:42:47;2.00;;;1.10;;
20480;SDS011;10399;50.754;3.366;2023-04-28T07:45:14;1.65;;;1.20;;
20480;SDS011;10399;50.754;3.366;2023-04-28T07:47:42;2.17;;;1.23;;
20480;SDS011;10399;50.754;3.366;2023-04-28T07:50:09;4.97;;;1.27;;
20480;SDS011;10399;50.754;3.366;2023-04-28T07:52:37;2.72;;;1.60;;
20480;SDS011;10399;50.754;3.366;2023-04-28T07:55:04;1.20;;;1.10;;
20480;SDS011;10399;50.754;3.366;2023-04-28T07:57:32;1.83;;;1.15;;
20480;SDS011;10399;50.754;3.366;2023-04-28T07:59:59;1.48;;;1.05;;
20480;SDS011;10399;50.754;3.366;2023-04-28T08:02:26;2.75;;;1.10;;
20480;SDS011;10399;50.754;3.366;2023-04-28T08:04:55;0.88;;;0.70;;
20480;SDS011;10399;50.754;3.366;2023-04-28T08:07:22;1.50;;;1.40;;
20480;SDS011;10399;50.754;3.366;2023-04-28T08:09:49;2.10;;;0.90;;
20480;SDS011;10399;50.754;3.366;2023-04-28T08:12:19;1.17;;;0.73;;
20480;SDS011;10399;50.754;3.366;2023-04-28T08:14:46;1.98;;;0.70;;
20480;SDS011;10399;50.754;3.366;2023-04-28T08:17:13;2.33;;;1.00;;
20480;SDS011;10399;50.754;3.366;2023-04-28T08:19:40;1.75;;;0.73;;
20480;SDS011;10399;50.754;3.366;2023-04-28T08:22:10;0.60;;;0.60;;
20480;SDS011;10399;50.754;3.366;2023-04-28T08:24:37;3.10;;;0.82;;
20480;SDS011;10399;50.754;3.366;2023-04-28T08:27:04;1.98;;;0.80;;
20480;SDS011;10399;50.754;3.366;2023-04-28T08:29:31;0.70;;;0.70;;
20480;SDS011;10399;50.754;3.366;2023-04-28T08:31:59;1.13;;;0.77;;
20480;SDS011;10399;50.754;3.366;2023-04-28T08:34:30;0.70;;;0.70;;
20480;SDS011;10399;50.754;3.366;2023-04-28T08:36:57;6.07;;;1.02;;
20480;SDS011;10399;50.754;3.366;2023-04-28T08:39:24;1.23;;;0.90;;
20480;SDS011;10399;50.754;3.366;2023-04-28T08:41:52;1.35;;;0.80;;
20480;SDS011;10399;50.754;3.366;2023-04-28T08:44:19;2.80;;;0.93;;
20480;SDS011;10399;50.754;3.366;2023-04-28T08:46:49;1.50;;;1.35;;
20480;SDS011;10399;50.754;3.366;2023-04-28T08:49:20;1.88;;;1.40;;
20480;SDS011;10399;50.754;3.366;2023-04-28T08:51:57;2.03;;;1.45;;
20480;SDS011;10399;50.754;3.366;2023-04-28T08:54:26;0.98;;;0.88;;
20480;SDS011;10399;50.754;3.366;2023-04-28T08:56:57;1.77;;;1.02;;
20480;SDS011;10399;50.754;3.366;2023-04-28T08:59:25;1.23;;;1.00;;
20480;SDS011;10399;50.754;3.366;2023-04-28T09:01:52;1.80;;;1.38;;
20480;SDS011;10399;50.754;3.366;2023-04-28T09:04:20;1.77;;;1.13;;
20480;SDS011;10399;50.754;3.366;2023-04-28T09:06:47;2.78;;;1.10;;
20480;SDS011;10399;50.754;3.366;2023-04-28T09:09:16;1.25;;;1.08;;
20480;SDS011;10399;50.754;3.366;2023-04-28T09:11:54;2.40;;;1.35;;
20480;SDS011;10399;50.754;3.366;2023-04-28T09:14:24;2.95;;;1.27;;
20480;SDS011;10399;50.754;3.366;2023-04-28T09:16:52;2.60;;;1.50;;
20480;SDS011;10399;50.754;3.366;2023-04-28T09:19:19;2.13;;;1.58;;
20480;SDS011;10399;50.754;3.366;2023-04-28T09:21:56;3.45;;;1.42;;
20480;SDS011;10399;50.754;3.366;2023-04-28T09:27:07;3.88;;;1.90;;
20480;SDS011;10399;50.754;3.366;2023-04-28T09:29:37;5.22;;;2.03;;
20480;SDS011;10399;50.754;3.366;2023-04-28T09:32:11;2.85;;;1.88;;
20480;SDS011;10399;50.754;3.366;2023-04-28T09:37:15;6.40;;;2.28;;
20480;SDS011;10399;50.754;3.366;2023-04-28T09:39:47;3.30;;;2.42;;
20480;SDS011;10399;50.754;3.366;2023-04-28T09:42:41;3.83;;;1.80;;
20480;SDS011;10399;50.754;3.366;2023-04-28T09:45:10;3.00;;;1.60;;
20480;SDS011;10399;50.754;3.366;2023-04-28T09:47:40;5.57;;;2.05;;
20480;SDS011;10399;50.754;3.366;2023-04-28T09:50:09;3.38;;;1.58;;
20480;SDS011;10399;50.754;3.366;2023-04-28T09:52:40;3.65;;;1.50;;
20480;SDS011;10399;50.754;3.366;2023-04-28T09:55:10;2.67;;;1.60;;
20480;SDS011;10399;50.754;3.366;2023-04-28T09:57:38;2.10;;;1.33;;
20480;SDS011;10399;50.754;3.366;2023-04-28T10:00:06;5.22;;;1.20;;
20480;SDS011;10399;50.754;3.366;2023-04-28T10:02:35;1.48;;;0.85;;
20480;SDS011;10399;50.754;3.366;2023-04-28T10:05:07;2.22;;;0.90;;
20480;SDS011;10399;50.754;3.366;2023-04-28T10:07:36;1.40;;;0.90;;
20480;SDS011;10399;50.754;3.366;2023-04-28T10:10:05;5.45;;;1.25;;
20480;SDS011;10399;50.754;3.366;2023-04-28T10:12:33;1.35;;;1.00;;
20480;SDS011;10399;50.754;3.366;2023-04-28T10:15:03;1.35;;;0.82;;
20480;SDS011;10399;50.754;3.366;2023-04-28T10:17:32;2.28;;;0.63;;
20480;SDS011;10399;50.754;3.366;2023-04-28T10:20:02;3.47;;;0.70;;
20480;SDS011;10399;50.754;3.366;2023-04-28T10:22:41;4.25;;;0.70;;
20480;SDS011;10399;50.754;3.366;2023-04-28T10:28:03;0.70;;;0.70;;
20480;SDS011;10399;50.754;3.366;2023-04-28T10:30:32;0.50;;;0.50;;
20480;SDS011;10399;50.754;3.366;2023-04-28T10:35:40;1.67;;;0.80;;
20480;SDS011;10399;50.754;3.366;2023-04-28T10:38:13;2.67;;;0.90;;
20480;SDS011;10399;50.754;3.366;2023-04-28T10:40:51;1.30;;;0.75;;
20480;SDS011;10399;50.754;3.366;2023-04-28T10:58:53;1.23;;;0.60;;
20480;SDS011;10399;50.754;3.366;2023-04-28T11:01:26;0.93;;;0.77;;
20480;SDS011;10399;50.754;3.366;2023-04-28T11:03:55;1.77;;;1.00;;
20480;SDS011;10399;50.754;3.366;2023-04-28T11:09:02;1.73;;;0.80;;
20480;SDS011;10399;50.754;3.366;2023-04-28T11:16:47;1.80;;;1.00;;
20480;SDS011;10399;50.754;3.366;2023-04-28T11:19:19;2.15;;;1.10;;
20480;SDS011;10399;50.754;3.366;2023-04-28T11:21:48;0.90;;;0.90;;
20480;SDS011;10399;50.754;3.366;2023-04-28T11:24:16;0.85;;;0.85;;
20480;SDS011;10399;50.754;3.366;2023-04-28T11:26:43;0.82;;;0.77;;
20480;SDS011;10399;50.754;3.366;2023-04-28T11:29:11;0.75;;;0.75;;
20480;SDS011;10399;50.754;3.366;2023-04-28T11:31:40;1.70;;;0.90;;
20480;SDS011;10399;50.754;3.366;2023-04-28T11:34:19;0.70;;;0.70;;
20480;SDS011;10399;50.754;3.366;2023-04-28T11:36:47;1.30;;;0.80;;
20480;SDS011;10399;50.754;3.366;2023-04-28T11:39:14;0.40;;;0.40;;
20480;SDS011;10399;50.754;3.366;2023-04-28T11:41:42;0.80;;;0.63;;
20480;SDS011;10399;50.754;3.366;2023-04-28T11:44:18;0.90;;;0.90;;
20480;SDS011;10399;50.754;3.366;2023-04-28T11:46:47;1.20;;;0.80;;
20480;SDS011;10399;50.754;3.366;2023-04-28T11:49:22;2.97;;;0.70;;
20480;SDS011;10399;50.754;3.366;2023-04-28T11:51:56;0.70;;;0.70;;
20480;SDS011;10399;50.754;3.366;2023-04-28T11:54:30;0.77;;;0.77;;
20480;SDS011;10399;50.754;3.366;2023-04-28T11:56:58;0.90;;;0.90;;
20480;SDS011;10399;50.754;3.366;2023-04-28T11:59:27;1.10;;;0.90;;
20480;SDS011;10399;50.754;3.366;2023-04-28T12:01:57;1.50;;;1.02;;
20480;SDS011;10399;50.754;3.366;2023-04-28T12:07:02;1.08;;;0.98;;
20480;SDS011;10399;50.754;3.366;2023-04-28T12:09:32;0.80;;;0.80;;
20480;SDS011;10399;50.754;3.366;2023-04-28T12:12:01;3.63;;;0.90;;
20480;SDS011;10399;50.754;3.366;2023-04-28T12:14:30;2.55;;;0.90;;
20480;SDS011;10399;50.754;3.366;2023-04-28T12:17:01;1.48;;;0.80;;
20480;SDS011;10399;50.754;3.366;2023-04-28T12:19:28;1.85;;;1.08;;
20480;SDS011;10399;50.754;3.366;2023-04-28T12:22:04;0.98;;;0.90;;
20480;SDS011;10399;50.754;3.366;2023-04-28T12:24:32;0.90;;;0.80;;
20480;SDS011;10399;50.754;3.366;2023-04-28T12:27:22;1.13;;;0.88;;
20480;SDS011;10399;50.754;3.366;2023-04-28T12:29:50;1.10;;;0.70;;
20480;SDS011;10399;50.754;3.366;2023-04-28T12:32:17;0.95;;;0.70;;
20480;SDS011;10399;50.754;3.366;2023-04-28T12:34:45;2.97;;;0.93;;
20480;SDS011;10399;50.754;3.366;2023-04-28T12:37:12;2.75;;;0.98;;
20480;SDS011;10399;50.754;3.366;2023-04-28T12:39:40;1.27;;;0.80;;
20480;SDS011;10399;50.754;3.366;2023-04-28T12:42:08;1.00;;;0.85;;
20480;SDS011;10399;50.754;3.366;2023-04-28T12:44:35;1.83;;;0.75;;
20480;SDS011;10399;50.754;3.366;2023-04-28T12:47:04;0.70;;;0.70;;
20480;SDS011;10399;50.754;3.366;2023-04-28T12:49:33;1.55;;;0.93;;
20480;SDS011;10399;50.754;3.366;2023-04-28T12:52:01;1.35;;;0.73;;
20480;SDS011;10399;50.754;3.366;2023-04-28T12:54:29;0.77;;;0.77;;
20480;SDS011;10399;50.754;3.366;2023-04-28T12:56:56;1.67;;;0.70;;
20480;SDS011;10399;50.754;3.366;2023-04-28T12:59:23;0.60;;;0.60;;
20480;SDS011;10399;50.754;3.366;2023-04-28T13:01:51;1.27;;;0.82;;
20480;SDS011;10399;50.754;3.366;2023-04-28T13:04:18;1.45;;;0.70;;
20480;SDS011;10399;50.754;3.366;2023-04-28T13:06:46;0.50;;;0.50;;
20480;SDS011;10399;50.754;3.366;2023-04-28T13:09:14;2.05;;;0.77;;
20480;SDS011;10399;50.754;3.366;2023-04-28T13:11:41;1.20;;;0.85;;
20480;SDS011;10399;50.754;3.366;2023-04-28T13:14:09;0.70;;;0.60;;
20480;SDS011;10399;50.754;3.366;2023-04-28T13:16:36;0.93;;;0.45;;
20480;SDS011;10399;50.754;3.366;2023-04-28T13:19:03;1.45;;;0.60;;
20480;SDS011;10399;50.754;3.366;2023-04-28T13:21:35;0.65;;;0.60;;
20480;SDS011;10399;50.754;3.366;2023-04-28T13:24:04;1.20;;;0.50;;
20480;SDS011;10399;50.754;3.366;2023-04-28T13:26:31;1.52;;;0.77;;
20480;SDS011;10399;50.754;3.366;2023-04-28T13:28:59;1.73;;;0.70;;
20480;SDS011;10399;50.754;3.366;2023-04-28T13:31:27;1.55;;;0.60;;
20480;SDS011;10399;50.754;3.366;2023-04-28T13:33:58;0.95;;;0.70;;
20480;SDS011;10399;50.754;3.366;2023-04-28T13:36:27;2.53;;;0.68;;
20480;SDS011;10399;50.754;3.366;2023-04-28T13:39:03;1.25;;;0.90;;
20480;SDS011;10399;50.754;3.366;2023-04-28T13:41:31;0.80;;;0.70;;
20480;SDS011;10399;50.754;3.366;2023-04-28T13:43:58;1.83;;;0.77;;
20480;SDS011;10399;50.754;3.366;2023-04-28T13:46:25;0.85;;;0.70;;
20480;SDS011;10399;50.754;3.366;2023-04-28T13:48:53;2.35;;;0.80;;
20480;SDS011;10399;50.754;3.366;2023-04-28T13:51:21;6.28;;;1.25;;
20480;SDS011;10399;50.754;3.366;2023-04-28T13:53:49;2.15;;;0.90;;
20480;SDS011;10399;50.754;3.366;2023-04-28T13:56:16;2.67;;;0.80;;
20480;SDS011;10399;50.754;3.366;2023-04-28T13:58:43;1.92;;;1.20;;
20480;SDS011;10399;50.754;3.366;2023-04-28T14:01:10;1.58;;;1.23;;
20480;SDS011;10399;50.754;3.366;2023-04-28T14:03:38;4.63;;;1.30;;
20480;SDS011;10399;50.754;3.366;2023-04-28T14:06:06;2.38;;;1.20;;
20480;SDS011;10399;50.754;3.366;2023-04-28T14:08:33;3.78;;;0.98;;
20480;SDS011;10399;50.754;3.366;2023-04-28T14:11:00;1.52;;;1.08;;
20480;SDS011;10399;50.754;3.366;2023-04-28T14:13:27;1.08;;;0.82;;
20480;SDS011;10399;50.754;3.366;2023-04-28T14:15:55;0.85;;;0.85;;
20480;SDS011;10399;50.754;3.366;2023-04-28T14:18:25;2.60;;;1.00;;
20480;SDS011;10399;50.754;3.366;2023-04-28T14:20:53;1.30;;;0.90;;
20480;SDS011;10399;50.754;3.366;2023-04-28T14:23:23;4.35;;;1.50;;
20480;SDS011;10399;50.754;3.366;2023-04-28T14:25:54;1.52;;;1.10;;
20480;SDS011;10399;50.754;3.366;2023-04-28T14:28:22;2.40;;;0.80;;
20480;SDS011;10399;50.754;3.366;2023-04-28T14:30:49;1.17;;;1.08;;
20480;SDS011;10399;50.754;3.366;2023-04-28T14:33:16;1.95;;;0.98;;
20480;SDS011;10399;50.754;3.366;2023-04-28T14:35:43;1.10;;;1.00;;
20480;SDS011;10399;50.754;3.366;2023-04-28T14:38:11;0.88;;;0.88;;
20480;SDS011;10399;50.754;3.366;2023-04-28T14:40:39;1.90;;;1.10;;
20480;SDS011;10399;50.754;3.366;2023-04-28T14:43:08;1.13;;;1.02;;
20480;SDS011;10399;50.754;3.366;2023-04-28T14:45:35;1.05;;;0.90;;
20480;SDS011;10399;50.754;3.366;2023-04-28T14:48:03;2.05;;;0.90;;
20480;SDS011;10399;50.754;3.366;2023-04-28T14:50:32;3.70;;;1.00;;
20480;SDS011;10399;50.754;3.366;2023-04-28T14:52:59;3.85;;;1.08;;
20480;SDS011;10399;50.754;3.366;2023-04-28T14:55:31;3.38;;;0.98;;
20480;SDS011;10399;50.754;3.366;2023-04-28T14:57:58;1.20;;;0.85;;
20480;SDS011;10399;50.754;3.366;2023-04-28T15:00:25;1.00;;;0.90;;
20480;SDS011;10399;50.754;3.366;2023-04-28T15:02:52;3.03;;;1.13;;
20480;SDS011;10399;50.754;3.366;2023-04-28T15:05:21;1.95;;;0.95;;
20480;SDS011;10399;50.754;3.366;2023-04-28T15:07:48;1.60;;;1.10;;
20480;SDS011;10399;50.754;3.366;2023-04-28T15:10:18;3.15;;;1.15;;
20480;SDS011;10399;50.754;3.366;2023-04-28T15:12:46;2.90;;;1.10;;
20480;SDS011;10399;50.754;3.366;2023-04-28T15:15:13;1.63;;;1.52;;
20480;SDS011;10399;50.754;3.366;2023-04-28T15:17:41;2.60;;;1.63;;
20480;SDS011;10399;50.754;3.366;2023-04-28T15:20:09;2.85;;;1.35;;